createdAt,value
2022-11-13T00:01:52.238Z,19.97
2022-11-13T00:04:38.490Z,18.90
2022-11-13T00:07:24.627Z,19.80
2022-11-13T00:10:10.913Z,19.20
2022-11-13T00:12:57.029Z,19.10
2022-11-13T00:15:43.340Z,20.13
2022-11-13T00:18:31.782Z,19.37
2022-11-13T00:21:19.433Z,18.43
2022-11-13T00:24:05.785Z,16.93
2022-11-13T00:26:52.070Z,18.77
2022-11-13T00:29:38.369Z,19.60
2022-11-13T00:32:24.399Z,19.47
2022-11-13T00:35:12.052Z,18.90
2022-11-13T00:37:58.140Z,20.00
2022-11-13T00:40:44.352Z,19.63
2022-11-13T00:43:30.426Z,19.00
2022-11-13T00:46:16.762Z,18.37
2022-11-13T00:49:03.488Z,18.30
2022-11-13T00:51:50.881Z,18.73
2022-11-13T00:54:36.937Z,17.20
2022-11-13T00:57:23.196Z,18.67
2022-11-13T01:00:11.060Z,18.87
2022-11-13T01:02:58.763Z,18.90
2022-11-13T01:05:46.659Z,19.20
2022-11-13T01:08:34.051Z,18.47
2022-11-13T01:11:21.672Z,19.57
2022-11-13T01:14:07.751Z,20.00
2022-11-13T01:16:54.147Z,18.60
2022-11-13T01:19:40.533Z,21.40
2022-11-13T01:22:26.449Z,20.17
2022-11-13T01:25:14.223Z,20.47
2022-11-13T01:28:00.458Z,19.30
2022-11-13T01:30:46.414Z,20.23
2022-11-13T01:33:32.537Z,19.50
2022-11-13T01:36:20.869Z,19.67
2022-11-13T01:39:06.839Z,19.83
2022-11-13T01:41:54.806Z,20.20
2022-11-13T01:44:53.046Z,20.30
2022-11-13T01:47:39.023Z,20.67
2022-11-13T01:50:25.273Z,19.33
2022-11-13T01:53:11.959Z,19.90
2022-11-13T01:55:58.037Z,19.97
2022-11-13T01:58:50.236Z,20.50
2022-11-13T02:01:36.781Z,20.80
2022-11-13T02:04:23.170Z,21.33
2022-11-13T02:07:11.230Z,21.20
2022-11-13T02:09:58.273Z,20.60
2022-11-13T02:12:47.897Z,21.10
2022-11-13T02:15:35.963Z,21.67
2022-11-13T02:18:22.802Z,22.20
2022-11-13T02:21:17.560Z,22.57
2022-11-13T02:24:14.949Z,20.60
2022-11-13T02:27:13.006Z,22.23
2022-11-13T02:29:59.433Z,21.20
2022-11-13T02:32:47.472Z,20.20
2022-11-13T02:35:36.472Z,21.40
2022-11-13T02:38:22.548Z,21.23
2022-11-13T02:41:08.958Z,21.03
2022-11-13T02:43:56.269Z,20.60
2022-11-13T02:46:42.451Z,22.53
2022-11-13T02:49:28.692Z,21.03
2022-11-13T02:52:14.950Z,21.30
2022-11-13T02:55:01.013Z,23.00
2022-11-13T02:57:47.220Z,21.57
2022-11-13T03:00:34.983Z,21.10
2022-11-13T03:03:41.133Z,21.97
2022-11-13T03:06:26.966Z,21.70
2022-11-13T03:09:13.088Z,22.40
2022-11-13T03:11:59.081Z,21.43
2022-11-13T03:14:45.277Z,22.43
2022-11-13T03:17:33.318Z,22.93
2022-11-13T03:20:19.421Z,22.70
2022-11-13T03:23:05.912Z,21.80
2022-11-13T03:25:52.120Z,21.20
2022-11-13T03:28:38.602Z,23.77
2022-11-13T03:31:24.789Z,23.20
2022-11-13T03:34:12.716Z,23.03
2022-11-13T03:36:58.831Z,23.63
2022-11-13T03:39:44.955Z,22.50
2022-11-13T03:42:31.449Z,22.73
2022-11-13T03:45:17.919Z,24.33
2022-11-13T03:48:04.099Z,25.00
2022-11-13T03:50:54.157Z,24.50
2022-11-13T03:53:40.501Z,23.27
2022-11-13T03:56:26.836Z,23.40
2022-11-13T03:59:13.020Z,23.00
2022-11-13T04:01:58.968Z,23.40
2022-11-13T04:04:45.539Z,24.50
2022-11-13T04:07:33.050Z,24.67
2022-11-13T04:10:19.180Z,26.57
2022-11-13T04:13:05.533Z,25.40
2022-11-13T04:15:51.669Z,23.57
2022-11-13T04:18:38.074Z,24.87
2022-11-13T04:21:24.589Z,25.27
2022-11-13T04:24:12.174Z,25.87
2022-11-13T04:26:58.348Z,25.60
2022-11-13T04:29:44.333Z,24.57
2022-11-13T04:32:30.544Z,25.47
2022-11-13T04:35:16.855Z,23.77
2022-11-13T04:38:02.865Z,24.57
2022-11-13T04:41:11.907Z,22.90
2022-11-13T04:43:57.241Z,24.23
2022-11-13T04:46:43.465Z,24.30
2022-11-13T04:49:29.726Z,25.37
2022-11-13T04:52:16.100Z,23.57
2022-11-13T04:55:02.201Z,28.13
2022-11-13T04:57:51.481Z,25.67
2022-11-13T05:00:37.833Z,26.40
2022-11-13T05:03:23.972Z,25.63
2022-11-13T05:06:16.672Z,27.07
2022-11-13T05:09:02.633Z,25.67
2022-11-13T05:11:48.850Z,26.63
2022-11-13T05:14:37.542Z,25.00
2022-11-13T05:17:24.046Z,27.90
2022-11-13T05:20:11.203Z,27.90
2022-11-13T05:22:57.415Z,25.23
2022-11-13T05:25:43.823Z,26.40
2022-11-13T05:28:30.191Z,28.20
2022-11-13T05:31:18.058Z,27.20
2022-11-13T05:34:06.117Z,25.90
2022-11-13T05:36:52.152Z,26.20
2022-11-13T05:39:38.193Z,25.90
2022-11-13T05:42:24.647Z,26.30
2022-11-13T05:45:11.462Z,26.93
2022-11-13T05:47:59.477Z,25.07
2022-11-13T05:50:45.812Z,26.77
2022-11-13T05:53:33.772Z,27.60
2022-11-13T05:56:21.583Z,27.10
2022-11-13T05:59:07.885Z,28.07
2022-11-13T06:01:53.956Z,27.87
2022-11-13T06:04:41.350Z,28.03
2022-11-13T06:07:27.793Z,28.87
2022-11-13T06:10:13.683Z,28.30
2022-11-13T06:12:59.506Z,27.50
2022-11-13T06:15:45.464Z,26.60
2022-11-13T06:18:32.131Z,27.40
2022-11-13T06:21:21.376Z,26.13
2022-11-13T06:24:08.555Z,27.07
2022-11-13T06:26:54.850Z,26.67
2022-11-13T06:29:41.083Z,27.37
2022-11-13T06:32:27.384Z,27.77
2022-11-13T06:35:13.316Z,27.70
2022-11-13T06:38:01.161Z,29.07
2022-11-13T06:40:47.464Z,27.87
2022-11-13T06:43:33.996Z,27.33
2022-11-13T06:46:21.673Z,29.67
2022-11-13T06:49:08.481Z,29.03
2022-11-13T06:51:54.671Z,28.03
2022-11-13T06:54:41.973Z,26.80
2022-11-13T06:57:28.157Z,29.60
2022-11-13T07:00:15.861Z,28.37
2022-11-13T07:03:01.821Z,27.07
2022-11-13T07:05:48.428Z,29.27
2022-11-13T07:08:35.101Z,29.87
2022-11-13T07:11:24.222Z,30.57
2022-11-13T07:14:14.242Z,28.40
2022-11-13T07:17:15.388Z,28.80
2022-11-13T07:20:01.802Z,31.67
2022-11-13T07:22:48.260Z,29.40
2022-11-13T07:25:34.765Z,29.33
2022-11-13T07:28:23.020Z,31.27
2022-11-13T07:31:10.506Z,27.80
2022-11-13T07:33:56.719Z,28.40
2022-11-13T07:36:42.747Z,31.27
2022-11-13T07:39:28.638Z,31.70
2022-11-13T07:42:14.680Z,30.17
2022-11-13T07:45:02.157Z,30.87
2022-11-13T07:47:48.121Z,31.60
2022-11-13T07:50:35.889Z,28.20
2022-11-13T07:53:22.972Z,28.73
2022-11-13T07:56:09.533Z,30.23
2022-11-13T07:58:55.707Z,30.47
2022-11-13T08:01:43.712Z,28.13
2022-11-13T08:04:30.902Z,30.70
2022-11-13T08:07:16.958Z,28.00
2022-11-13T08:10:03.018Z,29.70
2022-11-13T08:12:49.366Z,29.23
2022-11-13T08:15:39.643Z,28.93
2022-11-13T08:18:28.164Z,29.57
2022-11-13T08:21:15.149Z,29.80
2022-11-13T08:24:01.325Z,29.10
2022-11-13T08:26:47.787Z,29.47
2022-11-13T08:29:37.175Z,29.80
2022-11-13T08:32:23.241Z,28.00
2022-11-13T08:35:14.727Z,31.47
2022-11-13T08:38:05.298Z,32.10
2022-11-13T08:40:51.612Z,31.40
2022-11-13T08:43:37.606Z,29.23
2022-11-13T08:46:23.896Z,30.30
2022-11-13T08:49:12.455Z,31.90
2022-11-13T08:52:01.687Z,30.37
2022-11-13T08:54:49.428Z,29.13
2022-11-13T08:57:35.681Z,30.67
2022-11-13T09:00:22.726Z,27.50
2022-11-13T09:03:10.783Z,27.07
2022-11-13T09:05:57.006Z,28.67
2022-11-13T09:08:44.427Z,28.23
2022-11-13T09:11:30.961Z,28.63
2022-11-13T09:14:17.194Z,27.30
2022-11-13T09:17:03.829Z,29.93
2022-11-13T09:19:50.400Z,28.80
2022-11-13T09:22:36.643Z,29.13
2022-11-13T09:25:24.359Z,26.67
2022-11-13T09:28:11.623Z,27.83
2022-11-13T09:30:57.910Z,28.47
2022-11-13T09:33:43.958Z,28.70
2022-11-13T09:36:30.034Z,27.70
2022-11-13T09:39:16.970Z,24.30
2022-11-13T09:42:12.499Z,26.37
2022-11-13T09:45:02.728Z,27.23
2022-11-13T09:47:49.641Z,25.60
2022-11-13T09:50:36.081Z,25.77
2022-11-13T09:53:22.932Z,27.43
2022-11-13T09:56:19.091Z,27.10
2022-11-13T09:59:16.907Z,28.17
2022-11-13T10:02:15.843Z,28.20
2022-11-13T10:05:05.080Z,26.83
2022-11-13T10:07:55.753Z,27.40
2022-11-13T10:10:55.142Z,27.30
2022-11-13T10:13:45.162Z,26.27
2022-11-13T10:16:35.192Z,26.70
2022-11-13T10:19:25.611Z,25.07
2022-11-13T10:22:33.958Z,26.50
2022-11-13T10:25:22.016Z,27.67
2022-11-13T10:28:43.220Z,26.10
2022-11-13T10:31:20.213Z,26.73
2022-11-13T10:34:07.737Z,25.90
2022-11-13T10:37:06.587Z,25.83
2022-11-13T10:39:53.102Z,26.60
2022-11-13T10:42:41.156Z,23.90
2022-11-13T10:45:28.368Z,24.93
2022-11-13T10:48:22.053Z,26.90
2022-11-13T10:51:29.475Z,25.90
2022-11-13T10:54:23.332Z,23.13
2022-11-13T10:57:23.960Z,25.27
2022-11-13T11:00:21.635Z,23.90
2022-11-13T11:03:09.760Z,25.20
2022-11-13T11:05:58.713Z,28.10
2022-11-13T11:08:46.545Z,24.97
2022-11-13T11:11:52.758Z,24.17
2022-11-13T11:14:42.575Z,23.90
2022-11-13T11:17:32.745Z,24.00
2022-11-13T11:20:24.490Z,23.73
2022-11-13T11:23:18.406Z,26.60
2022-11-13T11:26:11.098Z,26.30
2022-11-13T11:29:05.050Z,26.70
2022-11-13T11:31:54.241Z,24.37
2022-11-13T11:34:43.281Z,23.40
2022-11-13T11:37:33.911Z,22.73
2022-11-13T11:40:27.695Z,23.00
2022-11-13T11:43:21.047Z,23.77
2022-11-13T11:46:12.152Z,21.37
2022-11-13T11:49:01.060Z,22.40
2022-11-13T11:51:54.517Z,21.50
2022-11-13T11:54:42.601Z,22.53
2022-11-13T11:57:40.728Z,21.20
2022-11-13T12:00:31.306Z,20.50
2022-11-13T12:03:34.247Z,19.90
2022-11-13T12:06:26.941Z,19.30
2022-11-13T12:09:22.917Z,20.00
2022-11-13T12:12:17.905Z,21.10
2022-11-13T12:15:09.560Z,18.10
2022-11-13T12:18:03.934Z,18.30
2022-11-13T12:20:55.126Z,19.00
2022-11-13T12:23:51.196Z,15.50
2022-11-13T12:26:42.427Z,17.67
2022-11-13T12:29:39.257Z,17.20
2022-11-13T12:32:41.127Z,18.27
2022-11-13T12:35:29.003Z,15.60
2022-11-13T12:38:23.371Z,16.40
2022-11-13T12:41:16.761Z,16.03
2022-11-13T12:44:16.089Z,16.53
2022-11-13T12:47:02.564Z,14.97
2022-11-13T12:49:59.898Z,17.67
2022-11-13T12:52:58.760Z,15.20
2022-11-13T12:55:59.861Z,14.80
2022-11-13T12:59:28.422Z,15.20
2022-11-13T13:02:30.642Z,13.70
2022-11-13T13:05:30.490Z,14.37
2022-11-13T13:08:45.532Z,14.37
2022-11-13T13:11:38.704Z,13.97
2022-11-13T13:14:34.202Z,15.23
2022-11-13T13:17:22.711Z,14.43
2022-11-13T13:20:30.440Z,14.00
2022-11-13T13:23:28.037Z,13.67
2022-11-13T13:26:20.954Z,13.23
2022-11-13T13:29:17.730Z,14.47
2022-11-13T13:32:15.501Z,13.70
2022-11-13T13:35:11.231Z,12.90
2022-11-13T13:38:02.630Z,14.77
2022-11-13T13:40:59.691Z,14.80
2022-11-13T13:43:56.525Z,15.50
2022-11-13T13:46:43.145Z,14.23
2022-11-13T13:49:30.246Z,14.87
2022-11-13T13:52:16.990Z,15.33
2022-11-13T13:55:06.432Z,15.20
2022-11-13T13:57:52.720Z,15.73
2022-11-13T14:00:59.171Z,14.90
2022-11-13T14:03:46.613Z,14.57
2022-11-13T14:06:33.330Z,17.63
2022-11-13T14:09:21.231Z,17.87
2022-11-13T14:12:17.571Z,16.77
2022-11-13T14:15:06.156Z,18.27
2022-11-13T14:17:53.803Z,16.60
2022-11-13T14:20:43.130Z,19.10
2022-11-13T14:23:31.434Z,19.80
2022-11-13T14:26:17.723Z,20.07
2022-11-13T14:29:04.152Z,20.70
2022-11-13T14:31:50.553Z,20.50
2022-11-13T14:34:38.982Z,23.00
2022-11-13T14:37:27.356Z,22.63
2022-11-13T14:40:20.478Z,21.60
2022-11-13T14:43:08.576Z,24.33
2022-11-13T14:45:56.722Z,23.60
2022-11-13T14:48:53.342Z,25.00
2022-11-13T14:51:41.512Z,24.17
2022-11-13T14:54:46.802Z,24.67
2022-11-13T14:57:36.970Z,22.57
2022-11-13T15:00:29.853Z,22.47
2022-11-13T15:03:16.348Z,24.70
2022-11-13T15:06:03.077Z,26.17
2022-11-13T15:08:52.686Z,25.30
2022-11-13T15:11:40.329Z,25.70
2022-11-13T15:14:26.304Z,26.60
2022-11-13T15:17:15.894Z,26.17
2022-11-13T15:20:06.679Z,26.33
2022-11-13T15:22:56.593Z,26.63
2022-11-13T15:25:44.163Z,21.30
2022-11-13T15:28:30.411Z,20.27
2022-11-13T15:31:20.601Z,19.03
2022-11-13T15:34:06.830Z,16.27
2022-11-13T15:36:52.998Z,14.10
2022-11-13T15:39:39.148Z,12.63
2022-11-13T15:42:30.010Z,12.20
2022-11-13T15:45:17.372Z,11.20
2022-11-13T15:48:04.176Z,11.60
2022-11-13T15:50:50.240Z,11.10
2022-11-13T15:53:36.486Z,9.93
2022-11-13T15:56:22.586Z,10.23
2022-11-13T15:59:11.987Z,9.70
2022-11-13T16:01:58.567Z,10.20
2022-11-13T16:04:56.011Z,10.33
2022-11-13T16:07:42.962Z,8.40
2022-11-13T16:10:29.149Z,9.07
2022-11-13T16:13:15.257Z,8.83
2022-11-13T16:16:02.713Z,9.80
2022-11-13T16:18:50.205Z,9.63
2022-11-13T16:21:36.207Z,9.40
2022-11-13T16:24:24.286Z,9.03
2022-11-13T16:27:16.682Z,9.10
2022-11-13T16:30:06.851Z,10.07
2022-11-13T16:32:55.257Z,8.27
2022-11-13T16:35:41.511Z,8.80
2022-11-13T16:38:27.595Z,9.50
2022-11-13T16:41:16.523Z,8.57
2022-11-13T16:44:02.587Z,8.53
2022-11-13T16:46:49.712Z,7.47
2022-11-13T16:49:37.434Z,8.10
2022-11-13T16:52:25.532Z,7.50
2022-11-13T16:55:11.631Z,7.70
2022-11-13T16:57:58.169Z,7.60
2022-11-13T17:00:44.752Z,7.13
2022-11-13T17:03:31.388Z,7.50
2022-11-13T17:06:23.186Z,7.20
2022-11-13T17:09:11.123Z,8.40
2022-11-13T17:11:57.533Z,7.63
2022-11-13T17:14:43.705Z,7.57
2022-11-13T17:17:29.940Z,7.20
2022-11-13T17:20:18.211Z,7.30
2022-11-13T17:23:05.893Z,6.70
2022-11-13T17:25:52.042Z,7.13
2022-11-13T17:28:38.738Z,6.93
2022-11-13T17:31:24.788Z,6.30
2022-11-13T17:34:11.470Z,7.57
2022-11-13T17:36:57.557Z,7.33
2022-11-13T17:39:45.085Z,7.90
2022-11-13T17:42:31.221Z,6.93
2022-11-13T17:45:17.675Z,7.20
2022-11-13T17:48:04.768Z,7.37
2022-11-13T17:50:56.981Z,7.03
2022-11-13T17:53:43.683Z,7.93
2022-11-13T17:56:31.570Z,6.87
2022-11-13T17:59:17.495Z,6.70
2022-11-13T18:02:03.580Z,7.57
2022-11-13T18:04:50.025Z,6.90
2022-11-13T18:07:36.455Z,7.13
2022-11-13T18:10:22.913Z,7.43
2022-11-13T18:13:10.812Z,7.40
2022-11-13T18:15:56.997Z,7.13
2022-11-13T18:18:43.388Z,6.97
2022-11-13T18:21:30.922Z,6.57
2022-11-13T18:24:18.754Z,6.70
2022-11-13T18:27:06.827Z,6.70
2022-11-13T18:29:54.226Z,7.53
2022-11-13T18:32:40.317Z,6.37
2022-11-13T18:35:26.563Z,8.03
2022-11-13T18:38:12.619Z,6.30
2022-11-13T18:41:03.109Z,7.17
2022-11-13T18:43:50.775Z,7.13
2022-11-13T18:46:38.947Z,6.27
2022-11-13T18:49:25.071Z,7.17
2022-11-13T18:52:11.428Z,7.27
2022-11-13T18:54:57.427Z,12.63
2022-11-13T18:57:43.737Z,9.27
2022-11-13T19:00:29.912Z,8.00
2022-11-13T19:03:17.804Z,8.00
2022-11-13T19:06:06.597Z,7.60
2022-11-13T19:08:55.976Z,8.00
2022-11-13T19:11:42.441Z,8.70
2022-11-13T19:14:28.672Z,9.10
2022-11-13T19:17:14.830Z,9.10
2022-11-13T19:20:02.465Z,8.70
2022-11-13T19:22:48.530Z,8.17
2022-11-13T19:25:34.537Z,9.60
2022-11-13T19:28:20.582Z,10.47
2022-11-13T19:31:08.011Z,11.00
2022-11-13T19:33:57.857Z,10.70
2022-11-13T19:36:47.138Z,9.40
2022-11-13T19:39:33.333Z,9.60
2022-11-13T19:42:19.544Z,9.37
2022-11-13T19:45:06.651Z,10.10
2022-11-13T19:47:52.730Z,9.63
2022-11-13T19:50:39.059Z,10.07
2022-11-13T19:53:26.883Z,11.13
2022-11-13T19:56:13.827Z,11.30
2022-11-13T19:58:59.741Z,10.53
2022-11-13T20:01:45.901Z,12.50
2022-11-13T20:04:32.174Z,11.60
2022-11-13T20:07:18.376Z,12.83
2022-11-13T20:10:07.475Z,14.50
2022-11-13T20:12:53.880Z,15.00
2022-11-13T20:15:40.256Z,18.27
2022-11-13T20:18:26.674Z,20.03
2022-11-13T20:21:13.047Z,18.70
2022-11-13T20:24:00.663Z,18.40
2022-11-13T20:26:48.130Z,19.27
2022-11-13T20:29:34.264Z,17.57
2022-11-13T20:32:20.689Z,17.70
2022-11-13T20:35:08.652Z,17.10
2022-11-13T20:37:54.780Z,17.83
2022-11-13T20:40:40.659Z,19.10
2022-11-13T20:43:28.340Z,19.33
2022-11-13T20:46:15.650Z,18.17
2022-11-13T20:49:02.074Z,19.33
2022-11-13T20:51:48.234Z,19.90
2022-11-13T20:54:34.549Z,20.03
2022-11-13T20:57:21.371Z,19.07
2022-11-13T21:00:11.104Z,20.43
2022-11-13T21:02:57.414Z,21.37
2022-11-13T21:05:43.450Z,23.40
2022-11-13T21:08:30.065Z,20.53
2022-11-13T21:11:18.902Z,22.33
2022-11-13T21:14:05.205Z,22.57
2022-11-13T21:16:52.649Z,22.17
2022-11-13T21:19:38.722Z,23.90
2022-11-13T21:22:25.064Z,22.00
2022-11-13T21:25:11.411Z,23.37
2022-11-13T21:27:57.855Z,22.10
2022-11-13T21:30:43.820Z,22.90
2022-11-13T21:33:31.555Z,23.10
2022-11-13T21:36:19.107Z,22.50
2022-11-13T21:39:05.449Z,24.07
2022-11-13T21:41:51.394Z,24.37
2022-11-13T21:44:37.988Z,24.60
2022-11-13T21:47:24.014Z,21.73
2022-11-13T21:50:12.013Z,21.57
2022-11-13T21:52:58.202Z,23.80
2022-11-13T21:55:50.016Z,22.07
2022-11-13T21:58:38.268Z,23.00
2022-11-13T22:01:24.785Z,23.50
2022-11-13T22:04:11.209Z,24.03
2022-11-13T22:06:58.749Z,24.97
2022-11-13T22:09:45.408Z,24.20
2022-11-13T22:12:31.526Z,23.47
2022-11-13T22:15:18.023Z,25.67
2022-11-13T22:18:04.140Z,25.63
2022-11-13T22:20:50.386Z,25.77
2022-11-13T22:23:37.943Z,24.20
2022-11-13T22:26:25.681Z,25.33
2022-11-13T22:29:12.158Z,26.07
2022-11-13T22:31:58.227Z,26.33
2022-11-13T22:34:44.551Z,25.50
2022-11-13T22:37:30.761Z,25.00
2022-11-13T22:40:18.548Z,26.27
2022-11-13T22:43:05.013Z,25.17
2022-11-13T22:45:51.027Z,25.03
2022-11-13T22:48:38.228Z,24.40
2022-11-13T22:51:26.038Z,24.00
2022-11-13T22:54:13.515Z,24.30
2022-11-13T22:57:04.044Z,26.83
2022-11-13T22:59:50.689Z,25.20
2022-11-13T23:02:36.691Z,25.63
2022-11-13T23:05:22.903Z,24.90
2022-11-13T23:08:09.038Z,25.00
2022-11-13T23:10:55.849Z,23.20
2022-11-13T23:13:44.452Z,26.50
2022-11-13T23:16:31.567Z,26.23
2022-11-13T23:19:18.067Z,25.40
2022-11-13T23:22:04.242Z,26.97
2022-11-13T23:24:50.721Z,26.27
2022-11-13T23:27:36.991Z,27.00
2022-11-13T23:30:24.800Z,26.50
2022-11-13T23:33:11.406Z,28.60
2022-11-13T23:35:57.597Z,26.73
2022-11-13T23:38:43.502Z,24.83
2022-11-13T23:41:29.817Z,25.60
2022-11-13T23:44:16.125Z,26.23
2022-11-13T23:47:04.821Z,28.10
2022-11-13T23:49:50.970Z,27.97
2022-11-13T23:52:37.219Z,26.80
2022-11-13T23:55:23.627Z,27.20
2022-11-13T23:58:12.474Z,26.27
